Pagina principale
METAR-TAF:

METAR-TAF

Aeroporti :

Homer, Alaska, Stati Uniti

latitudine: 59-39N, longitudine: 151-29W, altezza: 26 m

Osservazione

Il bollettino è stato emesso 19 minuti fa, alle 14:53 UTC
Vento calmo
Temperature 9°C
Umidità 93%
Pressione 1025 hPa
Visibilità: 16.1 km
Cielo sereno

METAR: PAHO 191453Z 00000KT 10SM CLR 09/08 A3028 RMK AO2 SLP252 T00940083 53010

Ora: 07:12 (15:12 UTC)

Previsione

Il bollettino è stato emesso 3 ore e 43 minuti fa, alle 11:29 UTC
Previsione valida dal 19 alle 12 UTC al 20 alle 12 UTC
Vento 5 kt da ovest
Visibilità: 10 km
Nubi sparse ad un'altezza di 20000 ft
A partire da 19 alle 2100 UTC
Vento 15 kt da ovest/sud-ovest
Visibilità: 10 km
Poco nuvoloso ad un'altezza di 20000 ft

TAF: PAHO 191129Z 1912/2012 26005KT P6SM SCT200 FM192100 25015KT P6SM FEW200

Osservazioni e previsioni meteorologiche di più di 4000 aeroporti (messaggi METAR e TAF).

Le stazioni disponibili sono rappresentate dai dischi gialli e rossi sulla carta.

Puntare il mouse per vedere il nome della stazione.

Clicca sopra per visualizzare le osservazioni e previsioni meteorologiche.

Per cambiare la mappa : fare clic sui pulsanti verdi con una croce nera per ingrandire, il pulsante verde con un trattino per diminuire, o sulla freccia verde per le mappe adiacenti.


METAR-TAF: